Time;durP1;ratioP1;P1;durP2;ratioP2;P2;SDS_P1;SDS_P2;PMS_P1;PMS_P2;Temp;Humidity;BMP_temperature;BMP_pressure;BME280_temperature;BME280_humidity;BME280_pressure;Samples;Min_cycle;Max_cycle;Signal;HPM_P1;HPM_P2
2024/02/02 07:02:19;;;;;;;;;41.50;37.50;;;;;;;;5082563;27;13497;-74
2024/02/02 07:04:45;;;;;;;;;42.75;36.50;;;;;;;;5086120;28;9633;-73
2024/02/02 07:07:10;;;;;;;;;39.50;34.00;;;;;;;;5103103;28;8808;-71
2024/02/02 07:09:36;;;;;;;;;43.25;36.75;;;;;;;;5106707;28;8918;-71
2024/02/02 07:12:05;;;;;;;;;38.25;34.50;;;;;;;;5106996;28;8792;-71
2024/02/02 07:14:42;;;;;;;;;34.25;33.50;;;;;;;;5106486;28;8800;-71
2024/02/02 07:17:17;;;;;;;;;40.75;30.50;;;;;;;;5104592;28;8788;-71
2024/02/02 07:19:42;;;;;;;;;31.00;28.00;;;;;;;;5108036;28;9512;-70
2024/02/02 07:22:19;;;;;;;;;35.33;30.67;;;;;;;;5108150;28;8846;-71
2024/02/02 07:24:45;;;;;;;;;51.50;43.00;;;;;;;;5108176;28;8900;-71
2024/02/02 07:27:39;;;;;;;;;67.25;51.75;;;;;;;;5104289;28;9485;-71
2024/02/02 07:30:23;;;;;;;;;59.25;48.00;;;;;;;;5087590;28;8955;-70
2024/02/02 07:32:48;;;;;;;;;55.50;48.00;;;;;;;;5108013;28;8794;-72
2024/02/02 07:35:25;;;;;;;;;60.50;52.00;;;;;;;;5107670;28;8816;-73
2024/02/02 07:37:51;;;;;;;;;61.50;50.00;;;;;;;;5100106;28;8884;-75
2024/02/02 07:40:37;;;;;;;;;69.25;51.00;;;;;;;;5087097;28;8807;-72
2024/02/02 07:43:02;;;;;;;;;33.67;28.00;;;;;;;;5086776;28;8918;-71
2024/02/02 07:45:27;;;;;;;;;48.33;43.00;;;;;;;;5087142;28;9638;-72
2024/02/02 07:47:52;;;;;;;;;59.33;43.67;;;;;;;;5087868;28;9566;-72
2024/02/02 07:50:18;;;;;;;;;39.33;31.00;;;;;;;;5107176;28;9592;-72
2024/02/02 07:52:43;;;;;;;;;48.00;39.67;;;;;;;;5107538;28;8996;-72
2024/02/02 07:55:08;;;;;;;;;41.33;39.67;;;;;;;;5107179;28;9510;-73
2024/02/02 07:57:34;;;;;;;;;39.33;37.00;;;;;;;;5105827;28;8812;-71
2024/02/02 07:59:59;;;;;;;;;36.33;32.67;;;;;;;;5106852;28;8771;-71
2024/02/02 08:02:24;;;;;;;;;41.00;36.33;;;;;;;;5107170;28;8798;-71
2024/02/02 08:04:50;;;;;;;;;51.33;36.33;;;;;;;;5107190;28;8803;-71
2024/02/02 08:07:15;;;;;;;;;42.00;36.00;;;;;;;;5106938;28;8795;-71
2024/02/02 08:09:40;;;;;;;;;2.67;0.00;;;;;;;;5107067;28;8865;-70
2024/02/02 08:12:06;;;;;;;;;36.00;33.00;;;;;;;;5101562;28;8812;-71
2024/02/02 08:14:31;;;;;;;;;41.00;34.33;;;;;;;;5093337;28;8796;-73
2024/02/02 08:16:57;;;;;;;;;43.00;37.33;;;;;;;;5093082;28;8796;-72
2024/02/02 08:19:22;;;;;;;;;42.33;38.33;;;;;;;;5092827;28;8885;-71
2024/02/02 08:21:48;;;;;;;;;45.67;40.00;;;;;;;;5093158;28;8796;-70
2024/02/02 08:24:13;;;;;;;;;43.67;34.33;;;;;;;;5072816;28;8807;-71
2024/02/02 08:26:38;;;;;;;;;43.33;34.00;;;;;;;;5072729;28;8870;-72
2024/02/02 08:29:03;;;;;;;;;43.33;36.00;;;;;;;;5072644;28;8811;-71
2024/02/02 08:31:29;;;;;;;;;44.67;38.00;;;;;;;;5072521;28;8815;-70
2024/02/02 08:33:55;;;;;;;;;38.00;37.00;;;;;;;;5071337;28;8802;-70
2024/02/02 08:36:20;;;;;;;;;45.67;38.33;;;;;;;;5072527;28;9583;-69
2024/02/02 08:38:45;;;;;;;;;47.67;39.67;;;;;;;;5072661;28;8833;-69
2024/02/02 08:41:11;;;;;;;;;50.00;41.00;;;;;;;;5072491;28;8829;-69
2024/02/02 08:43:37;;;;;;;;;41.00;37.67;;;;;;;;5072436;28;8782;-69
2024/02/02 08:46:07;;;;;;;;;50.33;37.67;;;;;;;;5072247;28;9606;-70
2024/02/02 08:48:33;;;;;;;;;43.33;41.67;;;;;;;;5079051;28;8796;-70
2024/02/02 08:50:58;;;;;;;;;51.33;40.33;;;;;;;;5092509;28;8929;-70
2024/02/02 08:53:24;;;;;;;;;48.33;44.00;;;;;;;;5092598;28;8877;-70
2024/02/02 08:55:50;;;;;;;;;48.00;43.33;;;;;;;;5092448;28;8792;-70
2024/02/02 08:58:15;;;;;;;;;47.67;41.33;;;;;;;;5092298;28;8772;-70
2024/02/02 09:00:41;;;;;;;;;46.00;42.67;;;;;;;;5092023;28;8903;-70
2024/02/02 09:03:46;;;;;;;;;56.67;48.00;;;;;;;;5092320;28;8794;-70
2024/02/02 09:06:39;;;;;;;;;53.00;45.67;;;;;;;;5069774;28;8780;-69
2024/02/02 09:09:08;;;;;;;;;40.00;40.00;;;;;;;;5052917;28;8811;-70
2024/02/02 09:11:34;;;;;;;;;58.00;45.67;;;;;;;;5069505;28;9627;-69
2024/02/02 09:14:04;;;;;;;;;56.33;46.00;;;;;;;;5069358;28;8780;-70
2024/02/02 09:16:37;;;;;;;;;52.33;43.33;;;;;;;;5069427;28;8788;-70
2024/02/02 09:19:02;;;;;;;;;55.00;46.67;;;;;;;;5058948;28;8802;-69
2024/02/02 09:21:34;;;;;;;;;56.33;48.00;;;;;;;;5049173;28;8897;-72
2024/02/02 09:23:59;;;;;;;;;42.00;31.33;;;;;;;;5048396;28;8790;-69
2024/02/02 09:26:36;;;;;;;;;53.67;46.00;;;;;;;;5030293;28;10189;-69
2024/02/02 09:29:02;;;;;;;;;52.33;46.33;;;;;;;;5029739;28;8770;-69
2024/02/02 09:31:32;;;;;;;;;51.33;44.33;;;;;;;;5029144;28;8834;-69
2024/02/02 09:33:57;;;;;;;;;50.33;44.00;;;;;;;;5012496;28;8816;-69
2024/02/02 09:36:26;;;;;;;;;58.00;50.00;;;;;;;;5029242;28;8798;-70
2024/02/02 09:39:00;;;;;;;;;62.67;48.33;;;;;;;;5029201;28;8778;-69
2024/02/02 09:41:34;;;;;;;;;58.00;47.33;;;;;;;;5031101;28;8795;-70
2024/02/02 09:44:18;;;;;;;;;65.67;52.00;;;;;;;;5030114;28;8807;-70
2024/02/02 09:46:44;;;;;;;;;57.00;48.00;;;;;;;;5031357;28;8804;-70
2024/02/02 09:49:18;;;;;;;;;61.67;47.00;;;;;;;;5029807;28;8827;-72
2024/02/02 09:51:43;;;;;;;;;42.67;41.67;;;;;;;;5031107;28;8922;-71
2024/02/02 09:54:20;;;;;;;;;54.33;47.00;;;;;;;;5031364;28;8796;-70
2024/02/02 09:57:13;;;;;;;;;50.33;42.33;;;;;;;;5031233;28;8784;-70
2024/02/02 09:59:44;;;;;;;;;65.67;48.00;;;;;;;;5031206;28;8818;-72
2024/02/02 10:02:20;;;;;;;;;53.00;45.33;;;;;;;;5031318;28;8921;-75
2024/02/02 10:05:00;;;;;;;;;62.33;51.00;;;;;;;;5029864;28;8824;-72
2024/02/02 10:07:40;;;;;;;;;68.33;52.67;;;;;;;;5030964;28;8779;-73
2024/02/02 10:10:06;;;;;;;;;62.67;51.33;;;;;;;;5030788;28;8803;-72
2024/02/02 10:12:50;;;;;;;;;56.33;46.00;;;;;;;;5030778;28;8796;-72
2024/02/02 10:15:35;;;;;;;;;65.33;49.00;;;;;;;;5031089;28;8884;-71
2024/02/02 10:18:19;;;;;;;;;63.00;52.33;;;;;;;;5023492;28;10956;-72
2024/02/02 10:20:52;;;;;;;;;59.33;48.33;;;;;;;;5030689;28;8860;-72
2024/02/02 10:23:22;;;;;;;;;60.67;49.33;;;;;;;;5031528;28;8807;-72
2024/02/02 10:25:47;;;;;;;;;61.67;51.00;;;;;;;;5030556;28;8946;-72
2024/02/02 10:28:35;;;;;;;;;72.33;56.33;;;;;;;;5030251;28;9525;-72
2024/02/02 10:31:03;;;;;;;;;63.67;53.33;;;;;;;;5028547;28;8852;-71
2024/02/02 10:33:44;;;;;;;;;62.00;51.00;;;;;;;;5029161;28;8916;-72
2024/02/02 10:36:12;;;;;;;;;66.67;54.33;;;;;;;;5030343;28;8772;-71
2024/02/02 10:38:40;;;;;;;;;66.67;53.67;;;;;;;;5030335;28;8799;-71
2024/02/02 10:41:29;;;;;;;;;62.67;53.00;;;;;;;;5030208;28;8835;-74
2024/02/02 10:44:03;;;;;;;;;66.00;53.33;;;;;;;;5037896;28;8847;-71
2024/02/02 10:46:31;;;;;;;;;64.33;51.67;;;;;;;;5030316;28;8926;-71
2024/02/02 10:49:21;;;;;;;;;70.33;56.67;;;;;;;;5028943;28;8831;-70
2024/02/02 10:51:49;;;;;;;;;67.33;51.33;;;;;;;;5028826;28;8847;-70
2024/02/02 10:54:14;;;;;;;;;66.00;51.00;;;;;;;;5030481;28;8901;-71
2024/02/02 10:56:46;;;;;;;;;73.33;55.33;;;;;;;;5030074;28;8803;-71
2024/02/02 10:59:27;;;;;;;;;76.67;53.67;;;;;;;;5030028;28;8875;-72
2024/02/02 11:02:05;;;;;;;;;68.67;54.67;;;;;;;;5028096;28;8836;-70
2024/02/02 11:04:49;;;;;;;;;70.33;55.33;;;;;;;;5030414;28;8792;-70
2024/02/02 11:07:29;;;;;;;;;74.00;57.00;;;;;;;;5030300;28;8842;-71
2024/02/02 11:10:01;;;;;;;;;65.00;52.00;;;;;;;;5029569;28;8812;-71
2024/02/02 11:12:36;;;;;;;;;57.00;49.00;;;;;;;;5027639;28;9829;-73
2024/02/02 11:15:08;;;;;;;;;65.67;53.67;;;;;;;;5030269;28;8784;-73
2024/02/02 11:17:44;;;;;;;;;65.67;51.00;;;;;;;;5030073;28;9656;-73
2024/02/02 11:20:22;;;;;;;;;70.25;53.75;;;;;;;;5029404;28;11558;-73
2024/02/02 11:22:58;;;;;;;;;70.25;54.50;;;;;;;;5028039;28;11687;-74
2024/02/02 11:25:26;;;;;;;;;68.33;54.33;;;;;;;;5029923;28;12415;-76
2024/02/02 11:28:09;;;;;;;;;72.67;57.33;;;;;;;;5028587;28;11565;-76
2024/02/02 11:30:39;;;;;;;;;74.33;58.00;;;;;;;;5027987;28;8848;-75
2024/02/02 11:33:13;;;;;;;;;68.00;55.50;;;;;;;;5036609;28;11548;-74
2024/02/02 11:36:11;;;;;;;;;74.25;58.00;;;;;;;;5029670;28;11521;-77
2024/02/02 11:38:37;;;;;;;;;63.75;51.75;;;;;;;;5039411;28;11552;-75
2024/02/02 11:41:02;;;;;;;;;66.25;54.00;;;;;;;;5027548;28;11692;-78
2024/02/02 11:43:29;;;;;;;;;66.50;54.50;;;;;;;;5029456;28;8873;-79
2024/02/02 11:45:55;;;;;;;;;67.50;54.00;;;;;;;;5029640;28;8812;-81
2024/02/02 11:48:39;;;;;;;;;66.75;54.00;;;;;;;;5032399;28;11572;-77
2024/02/02 11:51:05;;;;;;;;;68.75;55.25;;;;;;;;5031499;28;8962;-75
2024/02/02 11:53:36;;;;;;;;;68.25;55.25;;;;;;;;5032922;28;11572;-76
2024/02/02 11:56:10;;;;;;;;;70.00;56.25;;;;;;;;5033304;28;11553;-75
2024/02/02 11:58:36;;;;;;;;;72.50;56.50;;;;;;;;5031956;28;11683;-74
2024/02/02 12:01:24;;;;;;;;;72.75;57.00;;;;;;;;5030851;28;11691;-74
2024/02/02 12:03:49;;;;;;;;;73.25;57.25;;;;;;;;5040445;28;11663;-74
2024/02/02 12:06:19;;;;;;;;;74.00;55.00;;;;;;;;5031767;28;11567;-71
2024/02/02 12:08:47;;;;;;;;;55.25;46.00;;;;;;;;5033248;28;8838;-72
2024/02/02 12:11:13;;;;;;;;;79.67;59.00;;;;;;;;5030400;28;11682;-70
2024/02/02 12:13:40;;;;;;;;;73.33;58.00;;;;;;;;5032752;28;11711;-71
2024/02/02 12:16:06;;;;;;;;;74.67;60.33;;;;;;;;5031705;28;11605;-70
2024/02/02 12:18:32;;;;;;;;;72.67;58.67;;;;;;;;5032937;28;9533;-71
2024/02/02 12:20:57;;;;;;;;;70.33;56.67;;;;;;;;5030599;28;8836;-72
2024/02/02 12:23:22;;;;;;;;;71.00;58.33;;;;;;;;5036031;23;8975;-76
2024/02/02 12:25:47;;;;;;;;;71.67;55.00;;;;;;;;5012095;28;8817;-76
2024/02/02 12:28:13;;;;;;;;;69.33;56.33;;;;;;;;5012439;28;8957;-73
2024/02/02 12:30:38;;;;;;;;;68.00;52.67;;;;;;;;5010372;28;8889;-74
2024/02/02 12:33:05;;;;;;;;;68.67;55.00;;;;;;;;5011960;28;9641;-78
2024/02/02 12:35:30;;;;;;;;;74.67;58.00;;;;;;;;5012117;28;8909;-80
2024/02/02 12:37:56;;;;;;;;;72.00;56.33;;;;;;;;5012028;28;8807;-78
2024/02/02 12:40:23;;;;;;;;;63.00;52.33;;;;;;;;5011417;28;9509;-78
2024/02/02 12:42:53;;;;;;;;;65.67;51.67;;;;;;;;5012299;28;8824;-76
2024/02/02 12:45:19;;;;;;;;;67.00;53.00;;;;;;;;5012405;28;8917;-77
2024/02/02 12:47:44;;;;;;;;;64.33;49.00;;;;;;;;5012187;28;11539;-77
2024/02/02 12:50:17;;;;;;;;;67.67;53.00;;;;;;;;5011895;28;8794;-77
2024/02/02 12:52:46;;;;;;;;;61.00;47.00;;;;;;;;5008755;28;8821;-74
2024/02/02 12:55:12;;;;;;;;;62.00;50.00;;;;;;;;5010772;28;11557;-75
2024/02/02 12:57:38;;;;;;;;;55.00;47.33;;;;;;;;5010403;28;8799;-75
2024/02/02 13:00:04;;;;;;;;;64.33;52.00;;;;;;;;5011887;28;8918;-76
2024/02/02 13:02:29;;;;;;;;;61.33;47.67;;;;;;;;5008228;28;8852;-79
2024/02/02 13:04:56;;;;;;;;;61.67;51.00;;;;;;;;5011797;28;8817;-76
2024/02/02 13:07:21;;;;;;;;;63.67;50.00;;;;;;;;5011320;28;8804;-73
2024/02/02 13:09:54;;;;;;;;;60.50;51.50;;;;;;;;5011190;28;11674;-76
2024/02/02 13:12:29;;;;;;;;;62.00;50.00;;;;;;;;5009026;28;8826;-77
2024/02/02 13:15:18;;;;;;;;;53.50;44.75;;;;;;;;5010917;28;11564;-76
2024/02/02 13:17:57;;;;;;;;;59.00;43.75;;;;;;;;5011409;28;11573;-74
2024/02/02 13:20:30;;;;;;;;;61.50;48.00;;;;;;;;4991197;28;11674;-75
2024/02/02 13:23:00;;;;;;;;;61.00;49.00;;;;;;;;5010994;28;12389;-75
2024/02/02 13:25:26;;;;;;;;;58.00;47.00;;;;;;;;5010998;28;11804;-75
2024/02/02 13:27:52;;;;;;;;;52.00;44.00;;;;;;;;5010567;28;11696;-74
2024/02/02 13:30:21;;;;;;;;;50.75;44.25;;;;;;;;5010215;28;8828;-75
2024/02/02 13:32:48;;;;;;;;;49.75;42.75;;;;;;;;5009444;28;11670;-74
2024/02/02 13:35:22;;;;;;;;;53.50;43.00;;;;;;;;5009338;28;11659;-77
2024/02/02 13:37:51;;;;;;;;;55.75;44.25;;;;;;;;5009424;28;11604;-73
2024/02/02 13:40:17;;;;;;;;;47.00;43.00;;;;;;;;5010342;28;11610;-73
2024/02/02 13:42:45;;;;;;;;;53.50;42.00;;;;;;;;5004917;28;12474;-74
2024/02/02 13:45:14;;;;;;;;;47.75;43.50;;;;;;;;5010888;28;11540;-73
2024/02/02 13:47:41;;;;;;;;;56.00;45.00;;;;;;;;5010707;28;11547;-74
2024/02/02 13:50:15;;;;;;;;;48.50;41.00;;;;;;;;5010335;28;11590;-73
2024/02/02 13:52:40;;;;;;;;;55.00;46.00;;;;;;;;5010584;28;11553;-74
2024/02/02 13:55:06;;;;;;;;;52.50;44.25;;;;;;;;5009501;28;11687;-74
2024/02/02 13:57:31;;;;;;;;;57.50;46.75;;;;;;;;5009173;28;8790;-74
2024/02/02 13:59:58;;;;;;;;;60.33;49.33;;;;;;;;5009165;28;8803;-74
2024/02/02 14:02:24;;;;;;;;;61.50;48.75;;;;;;;;5008488;28;8790;-75
2024/02/02 14:04:50;;;;;;;;;62.67;51.00;;;;;;;;5006733;28;11580;-73
2024/02/02 14:07:16;;;;;;;;;58.25;46.25;;;;;;;;5009477;28;11584;-72
2024/02/02 14:09:41;;;;;;;;;62.00;47.50;;;;;;;;5008390;28;8794;-73
2024/02/02 14:12:07;;;;;;;;;60.50;48.00;;;;;;;;5007923;28;8898;-73
2024/02/02 14:14:33;;;;;;;;;52.33;46.33;;;;;;;;5010511;28;8800;-74
2024/02/02 14:17:05;;;;;;;;;59.33;42.67;;;;;;;;5008906;28;9811;-74
2024/02/02 14:19:30;;;;;;;;;61.00;47.50;;;;;;;;5010333;28;8782;-77
2024/02/02 14:22:05;;;;;;;;;59.00;46.25;;;;;;;;5009064;28;12410;-75
2024/02/02 14:24:31;;;;;;;;;60.00;49.50;;;;;;;;5010377;28;8895;-77
2024/02/02 14:26:57;;;;;;;;;53.50;43.50;;;;;;;;5009897;28;11584;-77
2024/02/02 14:29:27;;;;;;;;;61.00;50.50;;;;;;;;5010744;28;9548;-77
2024/02/02 14:31:56;;;;;;;;;59.50;50.50;;;;;;;;5010260;28;11659;-80
2024/02/02 14:34:21;;;;;;;;;57.75;47.25;;;;;;;;5010444;28;11540;-77
2024/02/02 14:36:47;;;;;;;;;59.25;47.25;;;;;;;;5009642;28;12384;-76
2024/02/02 14:39:20;;;;;;;;;58.50;47.00;;;;;;;;5009187;28;8818;-76
2024/02/02 14:41:45;;;;;;;;;57.25;48.25;;;;;;;;5008642;28;8826;-74
2024/02/02 14:44:11;;;;;;;;;52.25;42.25;;;;;;;;5005854;28;11595;-72
2024/02/02 14:46:39;;;;;;;;;55.00;43.25;;;;;;;;5008504;28;9566;-73
2024/02/02 14:49:05;;;;;;;;;56.00;47.00;;;;;;;;5008469;28;8806;-74
2024/02/02 14:51:30;;;;;;;;;58.75;49.25;;;;;;;;5010075;28;11714;-74
2024/02/02 14:53:55;;;;;;;;;58.25;47.00;;;;;;;;5008367;28;8956;-76
2024/02/02 14:56:21;;;;;;;;;55.25;46.25;;;;;;;;5006719;28;8836;-76
2024/02/02 14:58:46;;;;;;;;;57.50;43.25;;;;;;;;5009265;28;8865;-77
2024/02/02 15:01:14;;;;;;;;;56.75;45.50;;;;;;;;5009715;28;8902;-72
2024/02/02 15:03:40;;;;;;;;;63.25;51.50;;;;;;;;5007958;28;8833;-74
2024/02/02 15:06:06;;;;;;;;;62.50;51.00;;;;;;;;5007676;28;11727;-74
2024/02/02 15:08:31;;;;;;;;;55.00;45.00;;;;;;;;5008089;28;8791;-78
2024/02/02 15:10:57;;;;;;;;;58.00;46.25;;;;;;;;5008743;28;8989;-76
2024/02/02 15:13:22;;;;;;;;;59.75;44.50;;;;;;;;5007113;28;8837;-77
2024/02/02 15:15:47;;;;;;;;;50.00;42.50;;;;;;;;5006572;28;8883;-78
2024/02/02 15:18:13;;;;;;;;;49.75;39.75;;;;;;;;5009323;28;8790;-78
2024/02/02 15:20:38;;;;;;;;;34.25;30.75;;;;;;;;5009517;28;8814;-80
2024/02/02 15:23:03;;;;;;;;;42.50;34.25;;;;;;;;5011046;28;8826;-78
2024/02/02 15:25:29;;;;;;;;;39.00;35.00;;;;;;;;5013031;28;8794;-79
2024/02/02 15:27:54;;;;;;;;;40.00;37.75;;;;;;;;5013061;28;8809;-80
2024/02/02 15:30:19;;;;;;;;;34.50;33.75;;;;;;;;5012997;28;8891;-81
2024/02/02 15:32:45;;;;;;;;;32.75;29.50;;;;;;;;5013394;28;9378;-80
2024/02/02 15:35:13;;;;;;;;;38.00;32.75;;;;;;;;5013304;28;8814;-74
2024/02/02 15:37:39;;;;;;;;;36.25;27.50;;;;;;;;5007991;28;9944;-74
2024/02/02 15:40:05;;;;;;;;;37.75;34.25;;;;;;;;5011227;28;11588;-75
2024/02/02 15:42:30;;;;;;;;;39.25;34.25;;;;;;;;5016532;28;12286;-74
2024/02/02 15:44:57;;;;;;;;;36.75;30.50;;;;;;;;5013257;28;8791;-76
2024/02/02 15:47:23;;;;;;;;;31.00;26.50;;;;;;;;5012163;28;8857;-73
2024/02/02 15:49:48;;;;;;;;;30.50;26.50;;;;;;;;5013169;28;11583;-74
2024/02/02 15:52:13;;;;;;;;;35.50;32.00;;;;;;;;5013467;28;8848;-73
2024/02/02 15:54:39;;;;;;;;;42.00;33.50;;;;;;;;5013387;28;8833;-73
2024/02/02 15:57:04;;;;;;;;;39.25;35.00;;;;;;;;5011868;28;8865;-74
2024/02/02 15:59:30;;;;;;;;;40.75;35.50;;;;;;;;5012596;28;8811;-74
2024/02/02 16:01:56;;;;;;;;;44.00;32.25;;;;;;;;5011201;28;8837;-74
2024/02/02 16:04:22;;;;;;;;;37.50;35.75;;;;;;;;5012157;28;11573;-74
2024/02/02 16:06:47;;;;;;;;;36.75;35.75;;;;;;;;5012455;28;8810;-75
2024/02/02 16:09:13;;;;;;;;;40.50;35.25;;;;;;;;5011742;28;8845;-71
2024/02/02 16:11:38;;;;;;;;;40.25;35.00;;;;;;;;5012070;28;8958;-79
2024/02/02 16:14:03;;;;;;;;;41.00;36.75;;;;;;;;5010203;28;8886;-74
2024/02/02 16:16:29;;;;;;;;;37.50;37.25;;;;;;;;5011482;28;8828;-74
2024/02/02 16:18:54;;;;;;;;;37.50;32.75;;;;;;;;5002472;28;8900;-74
2024/02/02 16:21:20;;;;;;;;;49.25;40.50;;;;;;;;5013019;28;8909;-74
2024/02/02 16:23:45;;;;;;;;;44.25;41.00;;;;;;;;5010596;28;8957;-78
2024/02/02 16:26:12;;;;;;;;;34.50;30.50;;;;;;;;5010977;28;8845;-74
2024/02/02 16:28:37;;;;;;;;;45.75;39.25;;;;;;;;5010429;28;8803;-74
2024/02/02 16:31:03;;;;;;;;;35.50;31.75;;;;;;;;5011611;28;11615;-75
2024/02/02 16:33:28;;;;;;;;;43.75;39.25;;;;;;;;5009005;28;8878;-74
2024/02/02 16:35:54;;;;;;;;;50.50;41.75;;;;;;;;5011618;28;8806;-74
2024/02/02 16:38:19;;;;;;;;;36.00;35.50;;;;;;;;5011304;28;8782;-76
2024/02/02 16:40:44;;;;;;;;;41.25;37.25;;;;;;;;5011633;28;8807;-73
2024/02/02 16:43:10;;;;;;;;;50.00;42.50;;;;;;;;5009614;28;8795;-73
2024/02/02 16:45:36;;;;;;;;;50.25;41.50;;;;;;;;5011583;28;8795;-75
2024/02/02 16:48:01;;;;;;;;;52.25;42.75;;;;;;;;5011145;28;8819;-73
2024/02/02 16:50:26;;;;;;;;;46.75;41.75;;;;;;;;5011313;28;8865;-73
2024/02/02 16:52:52;;;;;;;;;51.50;42.75;;;;;;;;5009579;28;8783;-76
2024/02/02 16:55:17;;;;;;;;;46.75;41.75;;;;;;;;5011500;28;8779;-74
2024/02/02 16:57:42;;;;;;;;;55.00;43.00;;;;;;;;5011530;28;8909;-73
2024/02/02 17:00:08;;;;;;;;;52.50;42.50;;;;;;;;5012344;28;8835;-73
2024/02/02 17:02:37;;;;;;;;;51.75;42.25;;;;;;;;5009893;28;8812;-73
2024/02/02 17:05:02;;;;;;;;;43.25;36.25;;;;;;;;5011980;28;8787;-72
2024/02/02 17:07:28;;;;;;;;;41.50;39.00;;;;;;;;5012105;28;11587;-72
2024/02/02 17:09:54;;;;;;;;;50.75;41.50;;;;;;;;5010528;28;9566;-71
2024/02/02 17:12:20;;;;;;;;;55.75;43.50;;;;;;;;5007879;28;11659;-70
2024/02/02 17:14:45;;;;;;;;;49.25;42.00;;;;;;;;5011203;28;8792;-73
2024/02/02 17:17:10;;;;;;;;;53.00;43.00;;;;;;;;5010765;28;11683;-72
2024/02/02 17:19:36;;;;;;;;;55.00;45.75;;;;;;;;5011118;28;8862;-72
2024/02/02 17:22:01;;;;;;;;;54.00;42.75;;;;;;;;5009082;28;8849;-74
2024/02/02 17:24:26;;;;;;;;;54.25;43.00;;;;;;;;5011139;28;8889;-72
2024/02/02 17:26:51;;;;;;;;;57.25;48.25;;;;;;;;5011184;28;8791;-76
2024/02/02 17:29:17;;;;;;;;;58.50;46.75;;;;;;;;5011327;28;8803;-75
2024/02/02 17:31:47;;;;;;;;;57.75;45.50;;;;;;;;5011349;28;8830;-75
2024/02/02 17:34:12;;;;;;;;;52.50;42.50;;;;;;;;5009659;28;11585;-73
2024/02/02 17:36:37;;;;;;;;;60.00;46.00;;;;;;;;5010553;28;11586;-73
2024/02/02 17:39:03;;;;;;;;;58.50;48.00;;;;;;;;5010501;28;8782;-73
2024/02/02 17:41:28;;;;;;;;;52.25;42.50;;;;;;;;5010718;28;8954;-73
2024/02/02 17:43:54;;;;;;;;;54.50;43.00;;;;;;;;5009269;28;8929;-76
2024/02/02 17:46:19;;;;;;;;;43.25;36.50;;;;;;;;5009900;28;8794;-71
2024/02/02 17:48:46;;;;;;;;;38.25;34.00;;;;;;;;5010883;28;8802;-79
2024/02/02 17:51:16;;;;;;;;;48.25;39.25;;;;;;;;5018927;28;8861;-74
2024/02/02 17:53:42;;;;;;;;;42.50;39.00;;;;;;;;5009120;28;11562;-77
2024/02/02 17:56:07;;;;;;;;;44.75;37.25;;;;;;;;5010602;28;12307;-74
2024/02/02 17:58:33;;;;;;;;;47.25;39.75;;;;;;;;5009986;28;8815;-75
2024/02/02 18:00:59;;;;;;;;;58.50;47.75;;;;;;;;5009177;28;8802;-74
2024/02/02 18:03:27;;;;;;;;;63.00;46.50;;;;;;;;5007733;28;8821;-74
2024/02/02 18:05:53;;;;;;;;;66.33;52.67;;;;;;;;5006958;28;8790;-77
2024/02/02 18:08:18;;;;;;;;;64.33;52.00;;;;;;;;5010281;28;11686;-76
2024/02/02 18:10:43;;;;;;;;;64.50;51.25;;;;;;;;5010476;28;8850;-75
2024/02/02 18:13:09;;;;;;;;;62.25;50.50;;;;;;;;5008736;28;8791;-73
2024/02/02 18:15:34;;;;;;;;;66.00;54.00;;;;;;;;5007894;28;8783;-73
2024/02/02 18:17:59;;;;;;;;;63.33;52.00;;;;;;;;5009376;28;8810;-72
2024/02/02 18:20:24;;;;;;;;;65.00;52.33;;;;;;;;5010156;28;9575;-77
2024/02/02 18:22:51;;;;;;;;;62.50;49.75;;;;;;;;5008604;28;8938;-74
2024/02/02 18:25:17;;;;;;;;;60.25;49.00;;;;;;;;5009827;28;8802;-75
2024/02/02 18:27:42;;;;;;;;;64.67;53.00;;;;;;;;5009689;28;12401;-74
2024/02/02 18:30:09;;;;;;;;;66.25;48.50;;;;;;;;5009827;28;8876;-72
2024/02/02 18:32:34;;;;;;;;;67.00;51.00;;;;;;;;5007952;28;8838;-73
2024/02/02 18:34:59;;;;;;;;;62.67;52.67;;;;;;;;5009716;28;11585;-75
2024/02/02 18:37:25;;;;;;;;;58.33;47.33;;;;;;;;5009464;28;8794;-74
2024/02/02 18:39:50;;;;;;;;;39.00;39.00;;;;;;;;5009798;28;9501;-73
2024/02/02 18:42:15;;;;;;;;;48.00;41.75;;;;;;;;5008024;28;8830;-74
2024/02/02 18:44:40;;;;;;;;;43.75;40.75;;;;;;;;5014348;28;9749;-73
2024/02/02 18:47:07;;;;;;;;;40.25;34.00;;;;;;;;5010797;28;8827;-74
2024/02/02 18:49:32;;;;;;;;;44.25;39.00;;;;;;;;5004959;28;8810;-72
2024/02/02 18:51:57;;;;;;;;;41.50;37.00;;;;;;;;5007080;28;11584;-73
2024/02/02 18:54:23;;;;;;;;;44.75;42.00;;;;;;;;5009671;28;8814;-73
2024/02/02 18:56:49;;;;;;;;;48.50;39.75;;;;;;;;5009275;28;8827;-74
2024/02/02 18:59:14;;;;;;;;;46.75;41.50;;;;;;;;5008932;28;8786;-74
2024/02/02 19:01:40;;;;;;;;;43.00;40.00;;;;;;;;5009099;28;11578;-75
2024/02/02 19:04:06;;;;;;;;;56.75;44.00;;;;;;;;5007264;28;8786;-75
2024/02/02 19:06:35;;;;;;;;;55.25;45.00;;;;;;;;5009122;28;8803;-75
2024/02/02 19:09:01;;;;;;;;;65.33;49.33;;;;;;;;5008091;28;11712;-76
2024/02/02 19:11:26;;;;;;;;;62.33;50.67;;;;;;;;5009362;28;11767;-74
2024/02/02 19:13:52;;;;;;;;;70.00;52.33;;;;;;;;5005711;28;8787;-75
2024/02/02 19:16:21;;;;;;;;;71.67;55.33;;;;;;;;5006739;28;8886;-73
2024/02/02 19:18:47;;;;;;;;;61.33;51.33;;;;;;;;5011654;28;9584;-73
2024/02/02 19:21:21;;;;;;;;;71.67;56.00;;;;;;;;5009405;28;8810;-73
2024/02/02 19:23:47;;;;;;;;;70.33;54.00;;;;;;;;5001245;28;9308;-73
2024/02/02 19:26:12;;;;;;;;;70.33;54.33;;;;;;;;5009737;28;8787;-72
2024/02/02 19:28:38;;;;;;;;;66.67;54.00;;;;;;;;5009382;28;8829;-71
2024/02/02 19:31:03;;;;;;;;;63.33;51.67;;;;;;;;5009285;28;8853;-71
2024/02/02 19:33:29;;;;;;;;;65.67;52.67;;;;;;;;5008257;28;8813;-70
2024/02/02 19:35:54;;;;;;;;;64.67;52.67;;;;;;;;5005770;28;8798;-71
2024/02/02 19:38:19;;;;;;;;;65.67;52.00;;;;;;;;5007546;28;8806;-72
2024/02/02 19:40:45;;;;;;;;;63.67;50.33;;;;;;;;5006694;28;9686;-73
2024/02/02 19:43:10;;;;;;;;;58.50;47.50;;;;;;;;5009089;28;8807;-75
2024/02/02 19:45:36;;;;;;;;;63.67;48.33;;;;;;;;5009215;28;8825;-81
2024/02/02 19:48:02;;;;;;;;;59.33;50.33;;;;;;;;5009498;28;8899;-74
2024/02/02 19:50:27;;;;;;;;;60.33;47.00;;;;;;;;5008812;28;11587;-72
2024/02/02 19:52:54;;;;;;;;;59.33;45.00;;;;;;;;5008510;28;8786;-73
2024/02/02 19:55:19;;;;;;;;;63.67;51.00;;;;;;;;5009358;28;8880;-75
2024/02/02 19:57:45;;;;;;;;;62.67;47.67;;;;;;;;5009373;28;12307;-72
2024/02/02 20:00:11;;;;;;;;;62.33;51.33;;;;;;;;5009510;28;8902;-72
2024/02/02 20:02:36;;;;;;;;;68.00;54.00;;;;;;;;5009510;28;8798;-72
2024/02/02 20:05:02;;;;;;;;;67.67;53.67;;;;;;;;5009117;28;8894;-72
2024/02/02 20:07:27;;;;;;;;;67.67;54.67;;;;;;;;5009186;28;8786;-74
2024/02/02 20:09:53;;;;;;;;;71.67;54.33;;;;;;;;5012623;28;8802;-73
2024/02/02 20:12:18;;;;;;;;;69.67;54.00;;;;;;;;5012765;28;8960;-74
2024/02/02 20:14:44;;;;;;;;;69.67;55.33;;;;;;;;5011259;28;8933;-72
2024/02/02 20:17:09;;;;;;;;;66.00;54.00;;;;;;;;5012756;28;8802;-73
2024/02/02 20:19:37;;;;;;;;;64.00;51.33;;;;;;;;5012667;28;8807;-74
2024/02/02 20:22:03;;;;;;;;;69.33;53.67;;;;;;;;5011550;28;8810;-72
2024/02/02 20:24:28;;;;;;;;;63.67;53.00;;;;;;;;5012377;28;8814;-72
2024/02/02 20:26:53;;;;;;;;;65.67;53.67;;;;;;;;5011121;28;8822;-72
2024/02/02 20:29:18;;;;;;;;;69.67;54.00;;;;;;;;5012329;28;8810;-73
2024/02/02 20:31:44;;;;;;;;;64.67;54.00;;;;;;;;5010917;28;8834;-72
2024/02/02 20:34:09;;;;;;;;;67.33;55.00;;;;;;;;5012016;28;8798;-73
2024/02/02 20:36:34;;;;;;;;;69.00;52.00;;;;;;;;5012130;28;8832;-76
2024/02/02 20:39:00;;;;;;;;;63.33;50.00;;;;;;;;5027340;28;8821;-76
2024/02/02 20:41:25;;;;;;;;;66.67;54.00;;;;;;;;5010467;28;8799;-75
2024/02/02 20:43:53;;;;;;;;;67.00;54.00;;;;;;;;5011695;28;8783;-76
2024/02/02 20:46:18;;;;;;;;;64.00;51.67;;;;;;;;5012312;28;8794;-73
2024/02/02 20:48:44;;;;;;;;;62.67;51.33;;;;;;;;5012307;28;8787;-74
2024/02/02 20:51:09;;;;;;;;;57.67;46.33;;;;;;;;5017985;28;9569;-77
2024/02/02 20:53:34;;;;;;;;;61.00;50.00;;;;;;;;5012178;28;8819;-77
2024/02/02 20:55:59;;;;;;;;;62.67;51.00;;;;;;;;5012601;28;8795;-82
2024/02/02 20:58:25;;;;;;;;;60.00;49.00;;;;;;;;5012226;28;8802;-78
2024/02/02 21:00:51;;;;;;;;;63.50;51.50;;;;;;;;5012704;28;8798;-79
2024/02/02 21:03:18;;;;;;;;;64.33;54.00;;;;;;;;5012659;28;8857;-79
2024/02/02 21:05:43;;;;;;;;;68.33;54.00;;;;;;;;5012289;28;8815;-79
2024/02/02 21:08:08;;;;;;;;;55.33;43.00;;;;;;;;5012452;28;8848;-78
2024/02/02 21:10:34;;;;;;;;;65.67;53.00;;;;;;;;5012152;28;8798;-75
2024/02/02 21:13:00;;;;;;;;;63.33;52.00;;;;;;;;5011130;28;8830;-76
2024/02/02 21:15:31;;;;;;;;;63.67;51.67;;;;;;;;5011828;28;8905;-76
2024/02/02 21:17:57;;;;;;;;;65.67;51.67;;;;;;;;5009217;28;8838;-77
2024/02/02 21:20:30;;;;;;;;;58.00;48.67;;;;;;;;5010264;28;8913;-76
2024/02/02 21:22:56;;;;;;;;;64.33;52.67;;;;;;;;5024353;28;8859;-77
2024/02/02 21:25:21;;;;;;;;;70.00;56.00;;;;;;;;5011435;28;8888;-75
2024/02/02 21:27:46;;;;;;;;;65.33;52.00;;;;;;;;5011509;28;9814;-72
2024/02/02 21:30:12;;;;;;;;;63.67;50.67;;;;;;;;5011198;28;8810;-74
2024/02/02 21:32:37;;;;;;;;;61.00;51.00;;;;;;;;5011330;28;8838;-74
2024/02/02 21:35:03;;;;;;;;;65.00;53.00;;;;;;;;5010848;28;8815;-73